Time;durP1;ratioP1;P1;durP2;ratioP2;P2;SDS_P1;SDS_P2;PMS_P1;PMS_P2;Temp;Humidity;BMP_temperature;BMP_pressure;BME280_temperature;BME280_humidity;BME280_pressure;Samples;Min_cycle;Max_cycle;Signal;HPM_P1;HPM_P2
2022/08/08 00:00:34;;;;;;;7.40;4.78;;;;;;;12.06;100.00;101984.84;5021347;28;20531;-72
2022/08/08 00:03:05;;;;;;;10.13;5.50;;;;;;;12.01;100.00;101977.25;5018227;28;20483;-72
2022/08/08 00:05:54;;;;;;;10.13;5.70;;;;;;;11.97;100.00;101981.22;5009011;28;20029;-71
2022/08/08 00:08:27;;;;;;;6.32;5.00;;;;;;;11.92;100.00;101975.44;5026161;28;20033;-72
2022/08/08 00:11:16;;;;;;;7.13;5.38;;;;;;;11.89;100.00;101971.19;5021449;28;20029;-74
2022/08/08 00:13:56;;;;;;;10.98;5.22;;;;;;;11.83;100.00;101977.94;5019803;28;20033;-74
2022/08/08 00:16:43;;;;;;;9.38;5.90;;;;;;;11.81;100.00;101974.53;5026340;28;20745;-74
2022/08/08 00:19:21;;;;;;;9.88;5.47;;;;;;;11.78;100.00;101974.84;5030738;28;20645;-72
2022/08/08 00:22:02;;;;;;;6.72;4.75;;;;;;;11.74;100.00;101973.41;5041248;28;20037;-74
2022/08/08 00:24:41;;;;;;;5.95;4.78;;;;;;;11.66;100.00;101962.59;5021583;28;20041;-72
2022/08/08 00:27:09;;;;;;;8.45;4.35;;;;;;;11.66;100.00;101962.59;5023035;28;20043;-74
2022/08/08 00:29:34;;;;;;;7.05;4.82;;;;;;;11.67;100.00;101966.94;5025633;28;20071;-72
2022/08/08 00:32:09;;;;;;;7.03;5.00;;;;;;;11.65;100.00;101968.91;5017296;28;20034;-72
2022/08/08 00:37:52;;;;;;;6.50;5.15;;;;;;;11.56;100.00;101964.38;5017937;28;20053;-72
2022/08/08 00:40:23;;;;;;;6.95;4.65;;;;;;;11.52;100.00;101963.84;5024418;28;20041;-72
2022/08/08 00:43:10;;;;;;;5.25;4.35;;;;;;;11.50;100.00;101960.47;5032698;28;20033;-72
2022/08/08 00:45:41;;;;;;;5.18;4.05;;;;;;;11.48;100.00;101958.91;5014275;28;20208;-72
2022/08/08 00:48:36;;;;;;;7.85;4.93;;;;;;;11.44;100.00;101963.66;5013594;28;20029;-75
2022/08/08 00:51:23;;;;;;;4.53;3.00;;;;;;;11.44;100.00;101957.50;5024208;28;20140;-74
2022/08/08 00:54:24;;;;;;;7.18;5.35;;;;;;;11.41;100.00;101956.78;5035927;28;20517;-72
2022/08/08 00:57:21;;;;;;;6.18;4.38;;;;;;;11.34;100.00;101955.63;5010952;28;20029;-72
2022/08/08 01:00:07;;;;;;;5.28;4.55;;;;;;;11.30;100.00;101948.88;5002118;28;20489;-72
2022/08/08 01:03:05;;;;;;;8.10;5.95;;;;;;;11.24;100.00;101949.44;5024761;28;20036;-74
2022/08/08 01:05:47;;;;;;;5.72;4.22;;;;;;;11.23;100.00;101946.91;5016666;28;20021;-75
2022/08/08 01:08:34;;;;;;;7.05;4.50;;;;;;;11.18;100.00;101956.16;5021285;28;20041;-73
2022/08/08 01:11:19;;;;;;;9.02;5.28;;;;;;;11.15;100.00;101952.94;5020034;28;20045;-73
2022/08/08 01:14:08;;;;;;;8.20;6.25;;;;;;;11.14;100.00;101956.56;5032652;28;20025;-73
2022/08/08 01:17:12;;;;;;;8.85;5.07;;;;;;;11.09;100.00;101962.31;5021208;28;20688;-72
2022/08/08 01:19:55;;;;;;;7.50;4.80;;;;;;;11.11;100.00;101964.88;5017151;28;20056;-74
2022/08/08 01:22:31;;;;;;;8.30;4.97;;;;;;;11.12;100.00;101970.09;5023390;28;20502;-72
2022/08/08 01:25:06;;;;;;;7.88;4.82;;;;;;;11.08;100.00;101965.16;5024389;28;20037;-74
2022/08/08 01:27:54;;;;;;;7.13;5.55;;;;;;;11.09;100.00;101974.84;5012847;28;20033;-76
2022/08/08 01:30:48;;;;;;;7.55;5.13;;;;;;;11.06;100.00;101969.78;5022496;28;20034;-72
2022/08/08 01:33:19;;;;;;;8.25;5.25;;;;;;;11.08;100.00;101970.50;5024048;28;20040;-72
2022/08/08 01:36:22;;;;;;;5.97;4.88;;;;;;;10.99;100.00;101973.00;5032598;28;20060;-74
2022/08/08 01:39:06;;;;;;;8.10;5.22;;;;;;;10.97;100.00;101974.94;5018704;28;20021;-72
2022/08/08 01:41:56;;;;;;;7.18;5.15;;;;;;;10.97;100.00;101974.94;5016597;28;20412;-72
2022/08/08 01:45:05;;;;;;;9.23;5.72;;;;;;;11.01;100.00;101983.56;5017415;28;20075;-75
2022/08/08 01:47:49;;;;;;;6.88;5.32;;;;;;;10.99;100.00;101983.69;5005750;28;20498;-73
2022/08/08 01:50:27;;;;;;;8.45;4.97;;;;;;;11.01;100.00;101990.72;5021587;28;20172;-72
2022/08/08 01:53:19;;;;;;;6.95;4.88;;;;;;;10.92;100.00;101979.84;5020892;28;20030;-72
2022/08/08 01:56:03;;;;;;;7.40;4.88;;;;;;;10.92;100.00;101976.34;5004639;28;20063;-72
2022/08/08 01:58:37;;;;;;;7.53;5.43;;;;;;;10.89;100.00;101976.63;5027667;28;20029;-71
2022/08/08 02:01:19;;;;;;;6.25;4.63;;;;;;;10.87;100.00;101971.41;5024744;28;20025;-72
2022/08/08 02:04:31;;;;;;;6.68;4.93;;;;;;;10.88;100.00;101965.06;5030867;28;20029;-72
2022/08/08 02:07:05;;;;;;;6.72;5.22;;;;;;;10.90;100.00;101962.28;5031296;28;20045;-74
2022/08/08 02:09:41;;;;;;;6.55;4.95;;;;;;;10.92;100.00;101971.84;5043374;28;20025;-74
2022/08/08 02:12:24;;;;;;;9.65;6.35;;;;;;;10.93;100.00;101976.22;5035559;28;20753;-74
2022/08/08 02:14:56;;;;;;;9.45;6.07;;;;;;;10.98;100.00;101986.50;5044011;28;20034;-74
2022/08/08 02:17:33;;;;;;;11.70;5.60;;;;;;;10.88;100.00;101983.78;5023307;28;20438;-72
2022/08/08 02:20:09;;;;;;;8.55;6.20;;;;;;;10.94;100.00;101985.91;5015239;28;20038;-72
2022/08/08 02:22:49;;;;;;;16.23;9.77;;;;;;;10.98;100.00;101997.19;5021202;28;20391;-72
2022/08/08 02:25:23;;;;;;;12.13;6.88;;;;;;;10.90;100.00;101995.16;5028325;28;20153;-72
2022/08/08 02:27:56;;;;;;;10.60;6.88;;;;;;;10.85;100.00;101991.22;5043456;28;20025;-74
2022/08/08 02:30:35;;;;;;;12.48;7.32;;;;;;;10.83;100.00;101993.19;5026541;28;20037;-73
2022/08/08 02:33:35;;;;;;;10.63;6.80;;;;;;;10.85;100.00;101994.72;5027067;28;20074;-74
2022/08/08 02:36:26;;;;;;;10.80;6.10;;;;;;;10.88;100.00;101986.44;5015353;28;20792;-74
2022/08/08 02:39:14;;;;;;;8.73;5.15;;;;;;;10.91;100.00;101986.19;5002391;28;20030;-74
2022/08/08 02:41:40;;;;;;;10.88;6.63;;;;;;;10.97;100.00;101979.44;5019974;28;20036;-73
2022/08/08 02:44:42;;;;;;;8.70;6.35;;;;;;;11.00;100.00;101984.50;5026860;28;20021;-72
2022/08/08 02:47:23;;;;;;;7.68;5.00;;;;;;;10.96;100.00;101985.78;5026507;28;20517;-71
2022/08/08 02:50:22;;;;;;;8.50;6.65;;;;;;;10.97;100.00;101982.97;5034525;28;20033;-72
2022/08/08 02:53:12;;;;;;;7.15;5.18;;;;;;;10.96;100.00;101989.31;5020943;28;20030;-73
2022/08/08 02:56:16;;;;;;;9.13;5.85;;;;;;;11.09;100.00;101996.22;5026567;28;20033;-73
2022/08/08 02:59:30;;;;;;;9.13;6.72;;;;;;;11.12;100.00;101998.63;5020053;28;20159;-76
2022/08/08 03:02:35;;;;;;;8.68;5.47;;;;;;;11.06;100.00;101996.50;4984166;28;20029;-73
2022/08/08 03:05:34;;;;;;;7.80;6.05;;;;;;;11.13;100.00;102000.34;5023808;28;20113;-73
2022/08/08 03:08:37;;;;;;;9.35;6.20;;;;;;;11.13;100.00;102006.50;5023655;28;20108;-73
2022/08/08 03:11:40;;;;;;;10.25;5.47;;;;;;;11.02;100.00;101998.59;5022249;28;20084;-73
2022/08/08 03:14:34;;;;;;;7.70;5.35;;;;;;;10.96;100.00;101994.66;5031418;28;20042;-75
2022/08/08 03:17:04;;;;;;;8.20;5.72;;;;;;;10.96;100.00;101993.81;5026128;28;20041;-73
2022/08/08 03:20:07;;;;;;;9.73;5.40;;;;;;;10.93;100.00;101994.94;5009342;28;20482;-76
2022/08/08 03:22:52;;;;;;;10.18;6.57;;;;;;;10.93;100.00;101994.94;5022632;28;20026;-73
2022/08/08 03:25:26;;;;;;;10.93;6.40;;;;;;;10.98;100.00;101990.00;5024325;28;20029;-73
2022/08/08 03:28:00;;;;;;;9.25;5.22;;;;;;;10.96;100.00;101999.16;5042542;28;20398;-73
2022/08/08 03:30:30;;;;;;;8.57;4.80;;;;;;;10.96;100.00;101993.81;5025014;28;20845;-76
2022/08/08 03:35:40;;;;;;;8.50;5.85;;;;;;;11.07;100.00;101995.53;5013958;28;20418;-74
2022/08/08 03:38:07;;;;;;;9.02;6.28;;;;;;;11.25;100.00;102009.94;5024050;28;20025;-73
2022/08/08 03:40:33;;;;;;;11.45;6.60;;;;;;;11.18;100.00;102006.94;5017140;28;20021;-73
2022/08/08 03:43:08;;;;;;;12.63;6.50;;;;;;;11.19;100.00;102010.47;5041662;28;20503;-76
2022/08/08 03:45:34;;;;;;;11.98;6.93;;;;;;;11.12;100.00;102017.34;5042195;28;20029;-73
2022/08/08 03:48:02;;;;;;;7.32;5.88;;;;;;;11.06;100.00;102012.53;5027027;28;20393;-72
2022/08/08 03:50:31;;;;;;;8.48;6.30;;;;;;;11.04;100.00;102009.16;5044074;22;20071;-74
2022/08/08 03:53:01;;;;;;;;;;;;;;;10.99;100.00;102010.41;5018655;28;20026;-74
2022/08/08 03:55:27;;;;;;;7.43;5.78;;;;;;;10.92;100.00;101998.56;5022199;28;19933;-73
2022/08/08 03:57:55;;;;;;;7.73;5.67;;;;;;;10.88;100.00;101999.81;5016841;28;20026;-75
2022/08/08 04:00:26;;;;;;;6.20;4.90;;;;;;;10.88;100.00;102007.81;5019304;28;20032;-75
2022/08/08 04:03:02;;;;;;;;;;;;;;;10.89;100.00;102016.69;5028498;28;20021;-74
2022/08/08 04:05:29;;;;;;;12.43;7.53;;;;;;;10.90;100.00;102011.19;5027904;28;20336;-76
2022/08/08 04:08:04;;;;;;;10.48;6.60;;;;;;;10.92;100.00;102006.56;5027534;28;20012;-74
2022/08/08 04:10:32;;;;;;;11.38;6.60;;;;;;;10.92;100.00;102014.59;5020354;28;20021;-73
2022/08/08 04:12:57;;;;;;;8.63;5.97;;;;;;;10.90;100.00;102013.03;5008139;28;20025;-76
2022/08/08 04:15:23;;;;;;;11.50;7.60;;;;;;;10.95;100.00;102021.50;5045508;28;20040;-76
2022/08/08 04:17:49;;;;;;;7.13;5.05;;;;;;;10.96;100.00;102021.38;5027340;28;20028;-74
2022/08/08 04:20:16;;;;;;;7.65;5.43;;;;;;;10.95;100.00;102003.63;5027315;28;20044;-76
2022/08/08 04:22:41;;;;;;;8.53;5.77;;;;;;;11.03;100.00;102015.47;5045188;28;20021;-77
2022/08/08 04:25:08;;;;;;;10.70;5.82;;;;;;;11.08;100.00;102019.44;5027465;28;20108;-74
2022/08/08 04:27:35;;;;;;;6.78;5.25;;;;;;;11.07;100.00;102024.91;5007855;28;20504;-74
2022/08/08 04:30:04;;;;;;;6.95;5.50;;;;;;;11.09;100.00;102022.97;5024414;28;20584;-75
2022/08/08 04:32:30;;;;;;;7.47;5.70;;;;;;;11.08;100.00;102029.28;5036867;28;20416;-74
2022/08/08 04:34:55;;;;;;;9.10;5.53;;;;;;;11.08;100.00;102024.78;5011083;28;20029;-74
2022/08/08 04:37:23;;;;;;;7.10;5.07;;;;;;;11.13;100.00;102016.38;5027106;28;20029;-74
2022/08/08 04:39:49;;;;;;;8.88;6.63;;;;;;;11.18;100.00;102020.31;5026826;28;20029;-74
2022/08/08 04:42:14;;;;;;;11.90;6.93;;;;;;;11.30;100.00;102022.88;5027350;28;20048;-74
2022/08/08 04:44:40;;;;;;;7.13;5.43;;;;;;;11.35;100.00;102026.00;5027292;28;20032;-74
2022/08/08 04:47:06;;;;;;;8.53;6.33;;;;;;;11.50;100.00;102030.00;5044980;28;20013;-74
2022/08/08 04:49:31;;;;;;;6.63;5.40;;;;;;;11.62;100.00;102036.06;5023781;28;20065;-76
2022/08/08 04:51:57;;;;;;;6.43;5.17;;;;;;;11.76;100.00;102040.19;5023739;28;20237;-74
2022/08/08 04:54:22;;;;;;;9.03;6.23;;;;;;;12.03;100.00;102044.88;5019984;28;20033;-74
2022/08/08 04:56:48;;;;;;;9.60;6.03;;;;;;;12.29;100.00;102044.28;5004854;28;20029;-75
2022/08/08 04:59:13;;;;;;;8.17;6.33;;;;;;;12.59;100.00;102054.81;5027913;28;20476;-74
2022/08/08 05:01:39;;;;;;;10.43;6.70;;;;;;;12.80;100.00;102046.59;5011654;28;20469;-74
2022/08/08 05:04:04;;;;;;;7.53;6.20;;;;;;;13.13;100.00;102052.41;5009134;28;20037;-74
2022/08/08 05:06:34;;;;;;;8.60;6.15;;;;;;;13.32;100.00;102051.50;5008435;28;20041;-75
2022/08/08 05:09:00;;;;;;;10.70;5.87;;;;;;;13.32;100.00;102062.25;5025017;28;20501;-74
2022/08/08 05:11:25;;;;;;;6.77;5.43;;;;;;;13.27;100.00;102065.41;5027325;28;20321;-74
2022/08/08 05:13:54;;;;;;;11.13;6.95;;;;;;;13.29;100.00;102054.50;5011665;28;20294;-74
2022/08/08 05:16:19;;;;;;;11.53;6.07;;;;;;;13.61;100.00;102056.72;5019913;28;20116;-73
2022/08/08 05:18:44;;;;;;;8.73;5.50;;;;;;;14.13;100.00;102064.13;5019447;28;20036;-74
2022/08/08 05:21:12;;;;;;;8.57;6.33;;;;;;;15.06;100.00;102059.16;5027287;28;20021;-74
2022/08/08 05:23:39;;;;;;;8.90;5.80;;;;;;;15.98;100.00;102040.44;5010942;28;20037;-75
2022/08/08 05:26:04;;;;;;;8.43;6.03;;;;;;;16.67;100.00;102016.69;5027246;28;20017;-74
2022/08/08 05:28:30;;;;;;;6.17;4.27;;;;;;;17.75;100.00;102004.41;5007807;28;20032;-74
2022/08/08 05:30:55;;;;;;;7.40;4.07;;;;;;;18.87;100.00;101962.19;5036449;28;20021;-75
2022/08/08 05:33:21;;;;;;;6.45;4.32;;;;;;;19.24;100.00;101854.75;5021953;28;20462;-75
2022/08/08 05:35:48;;;;;;;4.97;3.90;;;;;;;19.99;100.00;101754.94;5019397;28;20017;-75
2022/08/08 05:38:16;;;;;;;5.95;4.15;;;;;;;20.80;100.00;101645.69;5014547;28;20107;-75
2022/08/08 05:40:52;;;;;;;4.28;3.88;;;;;;;20.98;100.00;101618.75;5029716;28;20079;-75
2022/08/08 05:43:29;;;;;;;3.65;2.83;;;;;;;21.01;100.00;101602.03;5020834;28;20032;-75
2022/08/08 05:46:04;;;;;;;4.75;3.70;;;;;;;21.38;100.00;101564.34;5019771;28;20029;-74
2022/08/08 05:48:33;;;;;;;3.63;3.03;;;;;;;21.50;100.00;101470.28;5023420;28;20493;-76
2022/08/08 05:50:59;;;;;;;5.88;3.45;;;;;;;21.40;100.00;101507.09;5013976;28;20025;-74
2022/08/08 05:53:25;;;;;;;6.35;3.28;;;;;;;22.04;100.00;101576.81;5047193;28;20087;-75
2022/08/08 05:55:57;;;;;;;5.60;3.33;;;;;;;22.30;100.00;101472.47;5023784;28;20063;-75
2022/08/08 05:58:28;;;;;;;3.88;3.53;;;;;;;21.91;100.00;101452.69;5030304;28;20033;-75
2022/08/08 06:01:04;;;;;;;5.25;3.10;;;;;;;21.85;100.00;101450.84;5010546;28;20029;-75
2022/08/08 06:03:30;;;;;;;4.13;2.70;;;;;;;21.60;95.10;101360.31;5024069;28;20112;-74
2022/08/08 06:06:05;;;;;;;4.32;2.78;;;;;;;22.32;91.48;101428.72;5030681;28;20025;-75
2022/08/08 06:08:50;;;;;;;4.10;2.97;;;;;;;22.26;93.63;101495.72;5039442;28;20865;-76
2022/08/08 06:11:18;;;;;;;5.32;2.60;;;;;;;22.96;84.64;101419.22;5005639;28;20102;-75
2022/08/08 06:13:45;;;;;;;5.85;2.25;;;;;;;22.50;80.74;101278.25;5022247;28;20029;-74
2022/08/08 06:16:15;;;;;;;8.05;3.13;;;;;;;21.98;81.50;101265.03;5030223;28;20025;-77
2022/08/08 06:18:53;;;;;;;3.83;3.28;;;;;;;22.18;79.78;101329.25;5010764;28;20726;-75
2022/08/08 06:21:20;;;;;;;7.18;2.85;;;;;;;22.05;75.86;101235.06;5013767;28;20124;-75
2022/08/08 06:23:46;;;;;;;4.53;2.45;;;;;;;21.52;78.88;101292.66;5014141;28;20032;-74
2022/08/08 06:26:12;;;;;;;5.85;2.58;;;;;;;22.68;79.75;101531.34;5030282;28;20029;-76
2022/08/08 06:29:04;;;;;;;3.97;3.20;;;;;;;22.83;75.81;101434.88;5005840;28;20017;-75
2022/08/08 06:31:36;;;;;;;4.13;2.70;;;;;;;23.17;72.31;101398.84;5022590;28;20830;-77
2022/08/08 06:34:18;;;;;;;4.72;2.50;;;;;;;22.70;70.41;101278.00;5029916;28;20078;-75
2022/08/08 06:36:49;;;;;;;4.80;2.70;;;;;;;23.05;68.67;101299.94;5041255;28;20389;-74
2022/08/08 06:39:16;;;;;;;5.93;2.60;;;;;;;23.45;68.18;101370.16;5029617;28;20062;-76
2022/08/08 06:41:49;;;;;;;8.15;3.17;;;;;;;23.07;67.48;101295.09;5029367;28;20023;-75
2022/08/08 06:44:17;;;;;;;4.72;2.90;;;;;;;22.73;70.60;101403.59;5029863;28;20039;-75
2022/08/08 06:46:46;;;;;;;4.75;2.85;;;;;;;22.17;71.20;101361.03;5029526;28;20025;-75
2022/08/08 06:49:11;;;;;;;9.02;2.75;;;;;;;22.41;72.43;101470.91;5021111;28;20041;-75
2022/08/08 06:51:38;;;;;;;5.13;2.75;;;;;;;22.84;69.62;101440.09;5009523;28;20021;-75
2022/08/08 06:54:03;;;;;;;3.08;2.63;;;;;;;23.34;69.81;101553.50;5013255;28;20031;-75
2022/08/08 06:56:35;;;;;;;5.40;3.30;;;;;;;22.76;67.10;101331.53;5009112;28;20539;-76
2022/08/08 06:59:02;;;;;;;4.80;3.50;;;;;;;22.46;69.35;101413.09;5043159;28;20060;-75
2022/08/08 07:01:50;;;;;;;5.20;2.90;;;;;;;21.99;73.17;101496.97;5045817;28;20429;-76
2022/08/08 07:04:23;;;;;;;6.13;2.90;;;;;;;22.11;76.10;101604.78;5029054;28;20086;-74
2022/08/08 07:06:58;;;;;;;4.00;2.65;;;;;;;22.59;73.23;101597.97;5047063;28;20037;-76
2022/08/08 07:09:37;;;;;;;3.22;2.58;;;;;;;23.60;69.56;101634.94;5028449;28;20395;-75
2022/08/08 07:12:06;;;;;;;6.80;3.67;;;;;;;22.67;71.51;101550.63;5029075;28;20021;-76
2022/08/08 07:15:01;;;;;;;5.78;2.50;;;;;;;22.47;70.53;101477.34;5022330;28;20033;-75
2022/08/08 07:17:33;;;;;;;3.28;2.33;;;;;;;22.74;73.30;101650.22;5012609;28;20120;-74
2022/08/08 07:20:07;;;;;;;4.63;2.55;;;;;;;22.91;72.79;101647.75;5028524;28;20033;-76
2022/08/08 07:22:59;;;;;;;7.78;2.42;;;;;;;22.55;72.55;101615.84;5024648;28;20033;-76
2022/08/08 07:25:26;;;;;;;6.47;2.50;;;;;;;22.72;71.83;101611.50;5012117;28;20029;-75
2022/08/08 07:28:07;;;;;;;6.05;2.53;;;;;;;21.74;74.32;101532.25;5023849;28;20029;-76
2022/08/08 07:30:34;;;;;;;4.85;1.90;;;;;;;21.68;74.15;101566.53;5021592;28;20029;-76
2022/08/08 07:33:00;;;;;;;4.53;2.13;;;;;;;22.37;73.68;101657.38;5025901;28;20027;-77
2022/08/08 07:35:27;;;;;;;4.30;2.58;;;;;;;22.25;71.67;101567.50;5043857;28;20465;-76
2022/08/08 07:37:55;;;;;;;2.83;1.73;;;;;;;22.58;72.37;101663.53;5026945;28;20036;-76
2022/08/08 07:40:27;;;;;;;3.90;1.95;;;;;;;23.10;69.88;101667.75;5027399;28;20500;-76
2022/08/08 07:42:53;;;;;;;4.00;1.70;;;;;;;22.87;68.54;101555.88;5028080;28;20025;-76
2022/08/08 07:45:19;;;;;;;;;;;;;;;22.95;67.14;101541.97;5027561;28;20067;-76
2022/08/08 07:47:45;;;;;;;3.45;1.63;;;;;;;22.66;67.82;101524.44;5010161;28;19920;-76
2022/08/08 07:50:11;;;;;;;;;;;;;;;22.14;66.52;101394.13;5010193;28;21053;-74
2022/08/08 07:52:43;;;;;;;3.78;1.80;;;;;;;21.22;70.45;101424.44;5010650;28;19917;-75
2022/08/08 07:55:12;;;;;;;4.13;1.92;;;;;;;21.85;76.73;101749.84;5009897;28;20025;-76
2022/08/08 07:57:43;;;;;;;2.22;1.65;;;;;;;22.83;71.56;101728.88;5008184;28;20040;-76
2022/08/08 08:00:12;;;;;;;3.97;1.50;;;;;;;23.03;68.67;101660.69;5010862;28;20036;-75
2022/08/08 08:02:59;;;;;;;3.35;2.10;;;;;;;22.47;66.35;101445.50;5011829;28;20017;-76
2022/08/08 08:05:28;;;;;;;5.13;1.52;;;;;;;23.22;64.87;101541.69;5025982;28;20418;-75
2022/08/08 08:08:19;;;;;;;6.15;1.88;;;;;;;22.95;63.89;101473.91;5025808;28;20228;-75
2022/08/08 08:10:50;;;;;;;6.00;1.52;;;;;;;22.31;62.95;101329.97;5012384;28;20041;-74
2022/08/08 08:13:37;;;;;;;3.63;1.70;;;;;;;22.99;63.40;101507.81;5027709;28;20054;-76
2022/08/08 08:16:20;;;;;;;3.78;1.50;;;;;;;23.20;62.74;101527.47;5027602;28;20477;-76
2022/08/08 08:18:57;;;;;;;3.80;1.70;;;;;;;23.14;60.37;101366.66;5052759;28;20418;-75
2022/08/08 08:21:29;;;;;;;6.03;2.00;;;;;;;22.97;60.79;101387.38;5026402;28;20163;-75
2022/08/08 08:23:54;;;;;;;3.97;1.70;;;;;;;23.34;61.60;101524.38;5027514;28;20033;-75
2022/08/08 08:26:20;;;;;;;2.15;1.42;;;;;;;23.12;60.92;101428.69;5027772;28;20078;-74
2022/08/08 08:28:46;;;;;;;2.50;1.20;;;;;;;22.72;62.53;101460.97;5027806;28;20032;-76
2022/08/08 08:31:12;;;;;;;9.13;1.73;;;;;;;22.80;60.66;101331.91;5026882;28;20052;-75
2022/08/08 08:33:38;;;;;;;4.10;1.83;;;;;;;21.34;66.71;101402.84;5011127;28;20465;-75
2022/08/08 08:36:08;;;;;;;2.75;1.45;;;;;;;21.19;68.74;101475.63;5027519;28;20021;-75
2022/08/08 08:38:34;;;;;;;3.80;1.92;;;;;;;21.16;71.83;101565.66;5027071;28;20055;-75
2022/08/08 08:41:07;;;;;;;5.72;1.90;;;;;;;21.05;73.02;101584.28;5008130;28;20025;-74
2022/08/08 08:43:38;;;;;;;3.78;1.50;;;;;;;20.65;74.59;101565.31;5027288;28;20029;-76
2022/08/08 08:46:07;;;;;;;7.82;1.58;;;;;;;20.09;78.56;101587.34;5027161;28;20079;-75
2022/08/08 08:48:33;;;;;;;5.43;1.60;;;;;;;20.22;83.35;101746.50;5038347;28;20095;-76
2022/08/08 08:51:01;;;;;;;6.65;1.95;;;;;;;19.93;84.67;101706.97;5026346;28;20476;-76
2022/08/08 08:53:27;;;;;;;3.92;1.60;;;;;;;20.26;88.54;101841.84;5026343;28;20485;-75
2022/08/08 08:55:58;;;;;;;3.65;2.17;;;;;;;20.15;82.29;101664.31;5027117;28;20064;-75
2022/08/08 08:58:41;;;;;;;5.28;1.65;;;;;;;19.52;88.60;101729.41;5045028;28;20032;-76
2022/08/08 09:01:09;;;;;;;5.68;1.80;;;;;;;20.28;86.46;101809.94;5009981;28;20479;-74
2022/08/08 09:03:36;;;;;;;6.10;1.67;;;;;;;20.75;82.72;101819.97;5011795;28;20031;-75
2022/08/08 09:06:02;;;;;;;3.80;1.60;;;;;;;21.08;81.88;101838.22;5014736;28;20037;-76
2022/08/08 09:08:32;;;;;;;2.75;1.25;;;;;;;21.28;79.46;101813.78;5047844;28;20025;-75
2022/08/08 09:10:58;;;;;;;6.82;1.63;;;;;;;21.61;78.25;101810.28;5030545;28;20025;-76
2022/08/08 09:13:24;;;;;;;6.57;1.40;;;;;;;22.02;74.50;101771.94;5031008;28;20021;-76
2022/08/08 09:15:50;;;;;;;3.35;1.20;;;;;;;21.80;75.15;101752.38;5014326;28;20032;-77
2022/08/08 09:18:16;;;;;;;3.40;1.20;;;;;;;21.61;75.61;101720.59;5030830;28;20784;-74
2022/08/08 09:20:45;;;;;;;8.15;1.70;;;;;;;21.31;75.71;101683.03;5030312;28;20119;-75
2022/08/08 09:23:15;;;;;;;4.70;1.40;;;;;;;21.65;76.22;101746.31;5014098;28;20092;-75
2022/08/08 09:25:54;;;;;;;4.18;1.67;;;;;;;21.79;77.11;101802.31;5031048;28;20515;-74
2022/08/08 09:28:26;;;;;;;4.78;1.45;;;;;;;21.92;76.41;101799.59;5030501;28;20061;-75
2022/08/08 09:30:52;;;;;;;6.05;1.70;;;;;;;21.79;74.87;101741.69;5030104;28;20044;-74
2022/08/08 09:33:21;;;;;;;2.08;1.13;;;;;;;21.30;77.72;101746.53;5030535;28;20028;-76
2022/08/08 09:35:48;;;;;;;4.18;1.40;;;;;;;21.48;77.93;101787.50;5029652;28;20033;-75
2022/08/08 09:38:24;;;;;;;3.67;1.75;;;;;;;21.59;74.92;101717.28;5030618;28;20070;-76
2022/08/08 09:40:54;;;;;;;3.28;1.30;;;;;;;21.46;79.76;101833.06;5029810;28;20366;-76
2022/08/08 09:43:29;;;;;;;5.00;1.90;;;;;;;21.64;74.60;101717.47;5048465;28;20052;-76
2022/08/08 09:45:59;;;;;;;7.15;1.50;;;;;;;21.47;73.79;101647.31;5030296;28;20147;-77
2022/08/08 09:48:31;;;;;;;4.38;2.05;;;;;;;21.24;77.30;101758.25;5063008;28;20029;-76
2022/08/08 09:50:58;;;;;;;7.07;1.52;;;;;;;21.35;73.06;101639.97;5054537;22;20089;-90
2022/08/08 09:53:30;;;;;;;;;;;;;;;21.63;73.40;101704.94;5050095;28;20033;-91
2022/08/08 09:55:56;;;;;;;3.13;0.93;;;;;;;21.33;69.62;101523.41;5050490;28;19924;-90
2022/08/08 09:58:25;;;;;;;5.90;1.60;;;;;;;21.25;70.12;101553.50;5049451;28;20040;-91
2022/08/08 10:00:54;;;;;;;4.00;1.50;;;;;;;20.65;75.20;101603.31;5050031;28;20104;-90
2022/08/08 10:03:23;;;;;;;4.07;1.58;;;;;;;20.27;76.50;101583.22;5050590;28;20500;-91
2022/08/08 10:05:49;;;;;;;4.32;1.40;;;;;;;20.46;80.74;101745.13;5050246;28;20025;-90
2022/08/08 10:08:14;;;;;;;4.00;1.40;;;;;;;20.63;80.88;101768.19;5050360;28;20370;-90
2022/08/08 10:10:42;;;;;;;8.83;2.33;;;;;;;21.06;78.74;101780.56;5049846;28;20480;-90
2022/08/08 10:13:19;;;;;;;5.75;1.42;;;;;;;21.18;75.86;101711.03;5033627;28;20025;-91
2022/08/08 10:15:53;;;;;;;6.22;1.73;;;;;;;21.17;78.81;101800.84;5032655;28;20033;-91
2022/08/08 10:18:33;;;;;;;2.20;1.10;;;;;;;20.80;71.70;101501.84;5049975;28;20489;-91
2022/08/08 10:21:08;;;;;;;5.60;1.83;;;;;;;20.67;73.28;101565.09;5029674;28;20036;-90
2022/08/08 10:23:33;;;;;;;8.52;1.65;;;;;;;20.66;75.17;101639.41;5017677;28;20455;-90
2022/08/08 10:25:59;;;;;;;3.17;1.60;;;;;;;20.76;76.31;101691.38;5049854;28;20025;-91
2022/08/08 10:28:26;;;;;;;8.20;1.50;;;;;;;20.76;76.31;101682.41;5049604;28;20036;-91
2022/08/08 10:30:58;;;;;;;5.40;1.48;;;;;;;21.05;77.06;101749.88;5032932;28;20029;-90
2022/08/08 10:33:32;;;;;;;4.32;1.23;;;;;;;20.95;79.21;101787.44;5048720;28;20037;-91
2022/08/08 10:36:03;;;;;;;3.75;1.50;;;;;;;20.93;72.88;101591.41;5049838;28;20517;-91
2022/08/08 10:38:30;;;;;;;5.78;1.33;;;;;;;21.20;74.75;101716.25;5049771;28;20029;-91
2022/08/08 10:41:01;;;;;;;2.17;1.23;;;;;;;21.69;71.19;101693.22;5029666;28;20024;-91
2022/08/08 10:43:37;;;;;;;5.20;1.92;;;;;;;21.81;69.96;101656.16;5032729;28;20522;-90
2022/08/08 10:46:02;;;;;;;7.45;1.92;;;;;;;21.75;71.17;101694.22;5048353;22;20033;-72
2022/08/08 10:48:32;;;;;;;6.40;1.47;;;;;;;21.89;69.21;101655.94;4991805;28;20169;-72
2022/08/08 10:50:57;;;;;;;2.97;1.30;;;;;;;21.91;67.79;101604.06;5008897;28;20160;-72
2022/08/08 10:53:34;;;;;;;2.47;1.20;;;;;;;22.38;70.21;101788.78;5026907;28;20557;-71
2022/08/08 10:55:59;;;;;;;2.17;0.90;;;;;;;22.47;66.67;101637.84;5009294;28;20429;-72
2022/08/08 10:58:27;;;;;;;5.33;1.27;;;;;;;22.73;67.17;101735.66;5026697;28;20030;-72
2022/08/08 11:00:52;;;;;;;4.90;1.30;;;;;;;22.49;65.66;101606.66;5026273;28;20033;-72
2022/08/08 11:03:17;;;;;;;3.33;1.20;;;;;;;22.51;66.42;101644.53;5008768;28;20075;-72
2022/08/08 11:05:50;;;;;;;4.30;1.40;;;;;;;22.36;64.71;101540.63;4992903;28;20037;-72
2022/08/08 11:08:25;;;;;;;3.47;1.67;;;;;;;22.58;65.85;101655.38;5008958;28;20611;-71
2022/08/08 11:11:04;;;;;;;3.90;1.73;;;;;;;22.65;64.11;101588.94;5025814;28;20061;-72
2022/08/08 11:13:40;;;;;;;2.40;1.27;;;;;;;22.03;65.15;101522.63;5001874;28;20033;-72
2022/08/08 11:16:07;;;;;;;5.22;1.50;;;;;;;21.95;65.21;101512.88;5026538;28;20434;-71
2022/08/08 11:18:34;;;;;;;6.95;1.90;;;;;;;22.42;65.84;101656.72;5008689;28;20064;-72
2022/08/08 11:21:02;;;;;;;3.85;1.63;;;;;;;22.64;63.95;101590.00;5008085;28;20417;-71
2022/08/08 11:23:32;;;;;;;3.33;1.35;;;;;;;22.73;65.34;101691.25;5008626;28;20025;-72
2022/08/08 11:26:00;;;;;;;5.03;1.10;;;;;;;22.87;63.11;101588.53;5026345;28;20078;-71
2022/08/08 11:28:26;;;;;;;5.50;1.70;;;;;;;22.39;64.17;101543.75;5026767;28;20467;-72
2022/08/08 11:30:54;;;;;;;2.72;1.23;;;;;;;22.32;63.26;101489.38;5026213;28;20136;-72
2022/08/08 11:33:23;;;;;;;8.63;1.75;;;;;;;22.86;64.92;101701.22;5008403;28;20206;-71
2022/08/08 11:35:50;;;;;;;3.25;1.38;;;;;;;23.06;60.79;101516.75;5008277;28;20034;-72
2022/08/08 11:38:15;;;;;;;;;;;;;;;22.70;62.49;101528.41;5026380;28;20034;-73
2022/08/08 11:40:41;;;;;;;6.32;1.30;;;;;;;22.43;61.96;101448.91;5007966;28;19916;-72
2022/08/08 11:43:07;;;;;;;3.83;1.80;;;;;;;23.11;60.85;101530.53;5025921;28;20079;-72
2022/08/08 11:45:33;;;;;;;3.58;1.00;;;;;;;23.20;61.11;101563.72;5025929;28;20037;-72
2022/08/08 11:47:58;;;;;;;2.63;0.90;;;;;;;23.42;61.91;101658.66;5008168;28;20064;-72
2022/08/08 11:50:25;;;;;;;4.25;1.35;;;;;;;22.72;62.77;101540.72;5007527;28;20456;-72
2022/08/08 11:52:51;;;;;;;3.40;0.98;;;;;;;23.37;62.63;101686.56;4988688;28;20014;-72
2022/08/08 11:55:18;;;;;;;6.82;2.10;;;;;;;23.68;60.97;101633.81;5025152;28;20468;-72
2022/08/08 11:57:44;;;;;;;5.38;2.15;;;;;;;23.66;59.69;101543.25;5025666;28;20100;-72